createdAt,value
2018-04-22T00:00:20.597Z,25.73
2018-04-22T00:02:48.345Z,28.83
2018-04-22T00:05:16.297Z,27.87
2018-04-22T00:07:44.107Z,30.03
2018-04-22T00:10:12.079Z,27.10
2018-04-22T00:12:39.834Z,28.40
2018-04-22T00:15:07.566Z,27.30
2018-04-22T00:20:12.148Z,25.90
2018-04-22T00:22:40.615Z,29.47
2018-04-22T00:25:08.340Z,28.03
2018-04-22T00:27:36.038Z,24.83
2018-04-22T00:30:03.848Z,31.00
2018-04-22T00:32:32.741Z,24.20
2018-04-22T00:35:07.151Z,24.07
2018-04-22T00:37:37.671Z,25.90
2018-04-22T00:40:05.453Z,25.43
2018-04-22T00:42:33.673Z,25.70
2018-04-22T00:45:02.516Z,27.87
2018-04-22T00:47:31.057Z,27.87
2018-04-22T00:49:59.813Z,26.73
2018-04-22T00:52:27.693Z,26.77
2018-04-22T00:54:55.476Z,26.73
2018-04-22T00:57:23.953Z,28.60
2018-04-22T00:59:51.673Z,21.80
2018-04-22T01:02:19.385Z,29.43
2018-04-22T01:04:49.587Z,31.67
2018-04-22T01:07:17.308Z,29.60
2018-04-22T01:09:45.023Z,29.90
2018-04-22T01:12:13.541Z,31.97
2018-04-22T01:14:41.280Z,28.83
2018-04-22T01:17:09.157Z,27.80
2018-04-22T01:19:36.961Z,31.37
2018-04-22T01:22:04.762Z,29.07
2018-04-22T01:24:33.662Z,33.57
2018-04-22T01:27:01.464Z,31.47
2018-04-22T01:29:30.030Z,28.70
2018-04-22T01:31:57.711Z,30.63
2018-04-22T01:34:25.480Z,28.70
2018-04-22T01:36:53.541Z,30.77
2018-04-22T01:39:21.409Z,31.40
2018-04-22T01:41:50.356Z,28.00
2018-04-22T01:44:18.841Z,30.50
2018-04-22T01:46:54.991Z,27.40
2018-04-22T01:49:22.918Z,27.87
2018-04-22T01:51:50.746Z,28.73
2018-04-22T01:54:18.576Z,29.83
2018-04-22T01:56:46.303Z,28.37
2018-04-22T01:59:13.978Z,29.13
2018-04-22T02:01:41.735Z,28.67
2018-04-22T02:04:09.379Z,32.20
2018-04-22T02:06:37.041Z,29.80
2018-04-22T02:09:04.857Z,28.27
2018-04-22T02:11:33.604Z,29.17
2018-04-22T02:14:02.149Z,30.70
2018-04-22T02:16:29.841Z,29.40
2018-04-22T02:18:57.501Z,28.43
2018-04-22T02:21:25.171Z,30.57
2018-04-22T02:23:52.871Z,27.97
2018-04-22T02:26:21.388Z,29.43
2018-04-22T02:28:49.137Z,34.43
2018-04-22T02:31:16.825Z,31.30
2018-04-22T02:33:44.517Z,27.73
2018-04-22T02:36:13.081Z,30.57
2018-04-22T02:38:40.812Z,27.60
2018-04-22T02:41:08.474Z,30.60
2018-04-22T02:43:36.200Z,25.50
2018-04-22T02:46:03.827Z,29.13
2018-04-22T02:48:31.468Z,31.53
2018-04-22T02:50:59.180Z,29.40
2018-04-22T02:53:26.928Z,27.87
2018-04-22T02:55:55.810Z,22.43
2018-04-22T02:58:23.555Z,27.53
2018-04-22T03:00:51.336Z,24.37
2018-04-22T03:03:19.093Z,26.17
2018-04-22T03:05:46.796Z,23.27
2018-04-22T03:08:14.538Z,28.17
2018-04-22T03:10:42.201Z,26.10
2018-04-22T03:13:09.908Z,26.00
2018-04-22T03:15:37.554Z,26.60
2018-04-22T03:18:05.240Z,28.37
2018-04-22T03:20:32.956Z,27.80
2018-04-22T03:23:00.581Z,29.47
2018-04-22T03:25:29.795Z,26.87
2018-04-22T03:27:58.205Z,25.47
2018-04-22T03:30:25.785Z,27.97
2018-04-22T03:33:08.495Z,31.73
2018-04-22T03:35:36.172Z,32.73
2018-04-22T03:38:03.924Z,31.97
2018-04-22T03:40:31.694Z,30.33
2018-04-22T03:43:00.176Z,29.37
2018-04-22T03:45:28.640Z,28.57
2018-04-22T03:47:56.300Z,27.07
2018-04-22T03:50:24.011Z,29.37
2018-04-22T03:52:51.741Z,24.63
2018-04-22T03:55:19.397Z,30.07
2018-04-22T03:57:47.141Z,35.07
2018-04-22T04:00:14.896Z,30.40
2018-04-22T04:02:42.591Z,33.50
2018-04-22T04:05:10.285Z,31.53
2018-04-22T04:07:37.938Z,24.80
2018-04-22T04:10:05.671Z,29.93
2018-04-22T04:12:33.343Z,30.00
2018-04-22T04:15:01.099Z,25.80
2018-04-22T04:17:28.700Z,29.37
2018-04-22T04:20:08.062Z,24.67
2018-04-22T04:22:41.694Z,27.43
2018-04-22T04:25:39.886Z,29.50
2018-04-22T04:28:07.569Z,34.00
2018-04-22T04:30:36.071Z,33.33
2018-04-22T04:33:03.757Z,34.07
2018-04-22T04:35:31.438Z,36.27
2018-04-22T04:37:59.120Z,34.93
2018-04-22T04:40:33.214Z,34.27
2018-04-22T04:43:00.862Z,37.60
2018-04-22T04:45:28.484Z,38.90
2018-04-22T04:47:56.891Z,36.77
2018-04-22T04:50:24.584Z,36.07
2018-04-22T04:52:52.243Z,39.37
2018-04-22T04:55:19.879Z,35.23
2018-04-22T04:57:47.502Z,39.77
2018-04-22T05:00:15.917Z,36.63
2018-04-22T05:02:43.500Z,39.70
2018-04-22T05:05:11.203Z,40.00
2018-04-22T05:07:39.614Z,45.50
2018-04-22T05:10:07.311Z,43.00
2018-04-22T05:12:35.006Z,35.53
2018-04-22T05:15:04.305Z,34.63
2018-04-22T05:17:32.693Z,39.10
2018-04-22T05:20:01.139Z,40.93
2018-04-22T05:22:28.795Z,41.73
2018-04-22T05:24:56.486Z,37.63
2018-04-22T05:27:24.153Z,42.13
2018-04-22T05:29:52.553Z,41.00
2018-04-22T05:32:20.165Z,41.83
2018-04-22T05:34:47.852Z,41.17
2018-04-22T05:37:17.105Z,33.30
2018-04-22T05:39:44.822Z,36.17
2018-04-22T05:42:13.230Z,36.27
2018-04-22T05:44:40.917Z,33.43
2018-04-22T05:47:08.801Z,31.43
2018-04-22T05:49:36.467Z,35.10
2018-04-22T05:52:04.116Z,33.60
2018-04-22T05:54:32.232Z,44.73
2018-04-22T05:56:59.871Z,44.43
2018-04-22T05:59:27.542Z,51.57
2018-04-22T06:01:55.130Z,56.27
2018-04-22T06:04:23.511Z,55.73
2018-04-22T06:06:51.133Z,57.70
2018-04-22T06:09:26.283Z,57.40
2018-04-22T06:11:53.965Z,61.77
2018-04-22T06:14:21.585Z,59.63
2018-04-22T06:16:49.202Z,61.50
2018-04-22T06:19:16.838Z,58.97
2018-04-22T06:21:45.238Z,50.27
2018-04-22T06:24:13.664Z,48.40
2018-04-22T06:26:41.322Z,54.07
2018-04-22T06:29:09.018Z,58.20
2018-04-22T06:31:36.677Z,56.93
2018-04-22T06:34:04.339Z,49.20
2018-04-22T06:36:31.935Z,49.87
2018-04-22T06:38:59.546Z,49.80
2018-04-22T06:41:27.138Z,56.10
2018-04-22T06:43:54.744Z,53.17
2018-04-22T06:46:22.382Z,45.63
2018-04-22T06:48:49.995Z,49.83
2018-04-22T06:51:17.604Z,48.50
2018-04-22T06:53:46.042Z,49.70
2018-04-22T06:56:14.446Z,52.40
2018-04-22T06:58:42.952Z,51.53
2018-04-22T07:01:10.613Z,52.07
2018-04-22T07:03:38.241Z,52.07
2018-04-22T07:06:05.872Z,50.07
2018-04-22T07:08:33.543Z,50.27
2018-04-22T07:11:01.231Z,42.20
2018-04-22T07:13:29.669Z,46.80
2018-04-22T07:15:57.361Z,51.37
2018-04-22T07:18:24.958Z,48.03
2018-04-22T07:20:52.660Z,48.13
2018-04-22T07:23:20.312Z,42.53
2018-04-22T07:25:47.984Z,55.30
2018-04-22T07:28:15.721Z,57.30
2018-04-22T07:30:43.389Z,56.17
2018-04-22T07:33:11.090Z,57.00
2018-04-22T07:35:44.471Z,57.40
2018-04-22T07:38:12.169Z,58.40
2018-04-22T07:40:40.689Z,53.97
2018-04-22T07:43:08.367Z,58.60
2018-04-22T07:45:36.049Z,61.73
2018-04-22T07:48:03.701Z,52.53
2018-04-22T07:50:31.401Z,56.03
2018-04-22T07:52:59.834Z,55.53
2018-04-22T07:55:27.481Z,55.63
2018-04-22T07:57:55.464Z,53.97
2018-04-22T08:00:23.280Z,55.57
2018-04-22T08:02:51.738Z,55.10
2018-04-22T08:05:19.375Z,55.20
2018-04-22T08:07:47.039Z,52.87
2018-04-22T08:10:16.731Z,52.73
2018-04-22T08:12:42.326Z,54.23
2018-04-22T08:15:10.106Z,53.20
2018-04-22T08:17:37.943Z,53.07
2018-04-22T08:20:05.785Z,50.40
2018-04-22T08:22:33.444Z,52.20
2018-04-22T08:25:01.128Z,46.40
2018-04-22T08:27:28.818Z,50.77
2018-04-22T08:29:56.437Z,53.23
2018-04-22T08:32:24.114Z,53.77
2018-04-22T08:34:51.834Z,53.20
2018-04-22T08:37:19.532Z,51.83
2018-04-22T08:39:47.732Z,52.67
2018-04-22T08:42:16.274Z,52.80
2018-04-22T08:44:44.740Z,51.73
2018-04-22T08:47:12.468Z,51.93
2018-04-22T08:49:40.895Z,50.57
2018-04-22T08:52:08.544Z,50.27
2018-04-22T08:54:36.304Z,47.10
2018-04-22T08:57:04.042Z,50.33
2018-04-22T08:59:31.710Z,49.07
2018-04-22T09:01:59.488Z,51.07
2018-04-22T09:04:35.046Z,52.30
2018-04-22T09:07:02.735Z,49.77
2018-04-22T09:09:30.411Z,52.50
2018-04-22T09:11:58.054Z,51.37
2018-04-22T09:14:25.764Z,52.67
2018-04-22T09:16:53.352Z,53.93
2018-04-22T09:19:21.111Z,48.60
2018-04-22T09:21:49.573Z,46.83
2018-04-22T09:24:17.272Z,51.97
2018-04-22T09:26:44.974Z,51.17
2018-04-22T09:29:12.713Z,52.67
2018-04-22T09:31:40.352Z,48.30
2018-04-22T09:34:07.999Z,44.87
2018-04-22T09:36:36.575Z,47.63
2018-04-22T09:39:04.225Z,44.80
2018-04-22T09:41:31.974Z,45.90
2018-04-22T09:43:59.668Z,46.10
2018-04-22T09:46:27.393Z,42.00
2018-04-22T09:48:58.157Z,42.07
2018-04-22T09:51:26.601Z,41.47
2018-04-22T09:53:54.221Z,40.67
2018-04-22T09:56:21.978Z,37.47
2018-04-22T09:58:49.715Z,38.53
2018-04-22T10:01:20.323Z,37.57
2018-04-22T10:03:48.052Z,33.87
2018-04-22T10:06:15.724Z,33.90
2018-04-22T10:08:43.412Z,31.13
2018-04-22T10:11:11.895Z,32.20
2018-04-22T10:13:39.521Z,30.30
2018-04-22T10:16:07.292Z,30.37
2018-04-22T10:18:34.936Z,28.40
2018-04-22T10:21:02.622Z,28.37
2018-04-22T10:23:31.029Z,25.50
2018-04-22T10:28:34.210Z,21.80
2018-04-22T10:31:01.888Z,26.27
2018-04-22T10:33:30.790Z,23.77
2018-04-22T10:35:59.298Z,26.53
2018-04-22T10:38:26.946Z,29.07
2018-04-22T10:40:54.657Z,25.10
2018-04-22T10:43:23.208Z,25.37
2018-04-22T10:45:52.001Z,26.93
2018-04-22T10:48:19.747Z,26.27
2018-04-22T10:53:41.837Z,26.20
2018-04-22T10:56:09.474Z,24.27
2018-04-22T10:58:37.186Z,20.70
2018-04-22T11:01:04.851Z,19.50
2018-04-22T11:03:36.318Z,19.40
2018-04-22T11:06:03.999Z,15.90
2018-04-22T11:08:31.705Z,19.40
2018-04-22T11:11:00.281Z,17.23
2018-04-22T11:13:27.946Z,17.53
2018-04-22T11:15:55.947Z,15.83
2018-04-22T11:18:23.745Z,12.97
2018-04-22T11:20:54.658Z,15.03
2018-04-22T11:23:23.971Z,19.90
2018-04-22T11:28:24.985Z,19.10
2018-04-22T11:30:53.715Z,16.87
2018-04-22T11:33:22.455Z,19.60
2018-04-22T11:35:50.093Z,17.70
2018-04-22T11:38:17.768Z,16.07
2018-04-22T11:40:45.469Z,15.13
2018-04-22T11:43:13.127Z,16.20
2018-04-22T11:45:40.910Z,16.30
2018-04-22T11:48:08.628Z,14.60
2018-04-22T11:50:36.333Z,15.43
2018-04-22T11:53:05.066Z,16.67
2018-04-22T11:55:32.804Z,12.57
2018-04-22T11:58:07.167Z,12.83
2018-04-22T12:00:34.789Z,13.30
2018-04-22T12:03:03.214Z,12.73
2018-04-22T12:05:32.936Z,11.20
2018-04-22T12:08:01.848Z,16.03
2018-04-22T12:10:29.487Z,21.43
2018-04-22T12:12:57.234Z,16.13
2018-04-22T12:15:25.807Z,16.40
2018-04-22T12:17:53.606Z,17.57
2018-04-22T12:20:21.201Z,16.63
2018-04-22T12:22:49.005Z,16.27
2018-04-22T12:25:16.681Z,21.50
2018-04-22T12:27:44.471Z,19.03
2018-04-22T12:30:12.216Z,24.70
2018-04-22T12:32:39.879Z,18.83
2018-04-22T12:35:07.460Z,19.63
2018-04-22T12:37:35.829Z,24.03
2018-04-22T12:40:03.535Z,24.87
2018-04-22T12:42:31.254Z,22.20
2018-04-22T12:44:58.938Z,21.33
2018-04-22T12:47:27.924Z,37.60
2018-04-22T12:49:56.394Z,36.00
2018-04-22T12:52:24.032Z,37.17
2018-04-22T12:54:51.932Z,32.07
2018-04-22T12:57:19.616Z,35.83
2018-04-22T12:59:48.002Z,33.33
2018-04-22T13:02:16.353Z,31.60
2018-04-22T13:04:44.077Z,32.27
2018-04-22T13:07:11.798Z,35.37
2018-04-22T13:09:41.633Z,33.17
2018-04-22T13:12:09.433Z,34.53
2018-04-22T13:14:38.193Z,32.03
2018-04-22T13:17:05.950Z,34.17
2018-04-22T13:19:33.640Z,31.30
2018-04-22T13:22:01.314Z,27.20
2018-04-22T13:24:29.093Z,28.03
2018-04-22T13:26:56.745Z,26.80
2018-04-22T13:29:24.371Z,26.20
2018-04-22T13:31:52.113Z,18.63
2018-04-22T13:34:19.862Z,16.03
2018-04-22T13:36:47.471Z,15.20
2018-04-22T13:39:15.212Z,11.70
2018-04-22T13:41:42.883Z,11.20
2018-04-22T13:44:10.553Z,14.10
2018-04-22T13:46:38.514Z,15.63
2018-04-22T13:49:06.210Z,12.83
2018-04-22T13:51:33.878Z,13.93
2018-04-22T13:54:02.307Z,16.83
2018-04-22T13:56:29.925Z,14.70
2018-04-22T13:58:58.370Z,16.93
2018-04-22T14:01:26.062Z,16.07
2018-04-22T14:03:54.523Z,13.70
2018-04-22T14:06:22.234Z,17.47
2018-04-22T14:08:49.860Z,17.13
2018-04-22T14:11:18.327Z,15.70
2018-04-22T14:13:46.117Z,16.50
2018-04-22T14:16:16.347Z,13.87
2018-04-22T14:18:43.999Z,13.37
2018-04-22T14:21:11.754Z,17.60
2018-04-22T14:23:39.423Z,20.40
2018-04-22T14:26:07.104Z,13.90
2018-04-22T14:28:34.811Z,12.47
2018-04-22T14:31:02.528Z,16.83
2018-04-22T14:33:30.145Z,14.27
2018-04-22T14:35:57.811Z,13.67
2018-04-22T14:38:26.241Z,14.10
2018-04-22T14:40:53.890Z,12.83
2018-04-22T14:43:21.546Z,14.83
2018-04-22T14:46:00.896Z,13.30
2018-04-22T14:48:28.589Z,13.07
2018-04-22T14:50:56.191Z,14.23
2018-04-22T14:53:23.994Z,12.63
2018-04-22T14:55:51.646Z,12.60
2018-04-22T14:58:19.264Z,10.37
2018-04-22T15:00:46.821Z,11.43
2018-04-22T15:03:14.513Z,12.40
2018-04-22T15:05:43.024Z,11.47
2018-04-22T15:08:10.736Z,7.60
2018-04-22T15:10:38.406Z,10.67
2018-04-22T15:13:06.201Z,11.90
2018-04-22T15:15:33.957Z,12.57
2018-04-22T15:18:01.576Z,10.30
2018-04-22T15:20:30.173Z,9.63
2018-04-22T15:22:57.799Z,8.07
2018-04-22T15:25:25.495Z,10.17
2018-04-22T15:27:53.224Z,11.00
2018-04-22T15:30:22.369Z,13.70
2018-04-22T15:32:50.070Z,14.67
2018-04-22T15:35:18.539Z,11.27
2018-04-22T15:37:46.165Z,11.27
2018-04-22T15:40:13.824Z,10.80
2018-04-22T15:42:42.558Z,9.80
2018-04-22T15:45:11.235Z,15.57
2018-04-22T15:47:38.800Z,16.00
2018-04-22T15:50:07.539Z,10.30
2018-04-22T15:52:35.191Z,14.83
2018-04-22T15:55:03.048Z,15.83
2018-04-22T15:57:30.712Z,17.97
2018-04-22T15:59:58.384Z,14.40
2018-04-22T16:02:26.081Z,12.27
2018-04-22T16:04:53.881Z,13.73
2018-04-22T16:07:21.595Z,14.07
2018-04-22T16:09:49.269Z,15.97
2018-04-22T16:12:17.042Z,14.20
2018-04-22T16:14:45.505Z,14.70
2018-04-22T16:17:13.169Z,13.90
2018-04-22T16:19:40.808Z,14.97
2018-04-22T16:22:08.407Z,14.60
2018-04-22T16:24:36.064Z,18.37
2018-04-22T16:27:05.277Z,17.13
2018-04-22T16:29:32.920Z,17.37
2018-04-22T16:32:01.395Z,15.87
2018-04-22T16:34:29.730Z,16.70
2018-04-22T16:36:57.401Z,15.23
2018-04-22T16:39:25.086Z,17.60
2018-04-22T16:41:52.896Z,17.60
2018-04-22T16:44:20.566Z,16.00
2018-04-22T16:46:48.577Z,19.33
2018-04-22T16:49:16.242Z,13.50
2018-04-22T16:51:43.926Z,14.23
2018-04-22T16:54:12.396Z,15.87
2018-04-22T16:56:40.852Z,17.37
2018-04-22T16:59:08.559Z,21.17
2018-04-22T17:01:36.234Z,18.53
2018-04-22T17:04:03.902Z,16.07
2018-04-22T17:06:31.576Z,16.83
2018-04-22T17:08:59.250Z,14.53
2018-04-22T17:11:26.995Z,14.73
2018-04-22T17:13:54.820Z,17.23
2018-04-22T17:16:22.653Z,20.60
2018-04-22T17:18:50.399Z,14.40
2018-04-22T17:21:18.191Z,13.07
2018-04-22T17:23:45.901Z,16.07
2018-04-22T17:26:13.670Z,20.73
2018-04-22T17:28:41.337Z,13.93
2018-04-22T17:31:09.035Z,18.90
2018-04-22T17:33:36.756Z,19.87
2018-04-22T17:36:04.583Z,13.57
2018-04-22T17:38:32.387Z,13.50
2018-04-22T17:41:00.055Z,16.63
2018-04-22T17:43:27.732Z,15.03
2018-04-22T17:45:55.380Z,15.57
2018-04-22T17:48:23.823Z,15.60
2018-04-22T17:50:51.516Z,17.43
2018-04-22T17:53:19.232Z,18.80
2018-04-22T17:55:47.712Z,15.63
2018-04-22T17:58:15.409Z,13.60
2018-04-22T18:00:43.116Z,17.50
2018-04-22T18:03:10.810Z,17.23
2018-04-22T18:05:38.479Z,19.90
2018-04-22T18:08:06.140Z,14.70
2018-04-22T18:10:33.882Z,18.70
2018-04-22T18:13:01.536Z,17.17
2018-04-22T18:15:29.178Z,14.63
2018-04-22T18:17:57.770Z,21.00
2018-04-22T18:20:25.466Z,15.30
2018-04-22T18:22:53.137Z,17.30
2018-04-22T18:25:20.854Z,15.70
2018-04-22T18:27:49.237Z,16.23
2018-04-22T18:30:16.924Z,18.33
2018-04-22T18:32:44.523Z,16.03
2018-04-22T18:35:12.384Z,18.70
2018-04-22T18:37:40.113Z,19.00
2018-04-22T18:40:08.690Z,13.20
2018-04-22T18:42:37.221Z,17.80
2018-04-22T18:45:04.952Z,15.47
2018-04-22T18:47:32.662Z,17.20
2018-04-22T18:50:01.093Z,16.80
2018-04-22T18:52:29.464Z,14.97
2018-04-22T18:54:57.138Z,13.23
2018-04-22T18:57:24.748Z,14.83
2018-04-22T18:59:53.198Z,14.23
2018-04-22T19:02:20.943Z,11.97
2018-04-22T19:04:48.709Z,11.10
2018-04-22T19:07:16.466Z,17.83
2018-04-22T19:09:44.194Z,14.10
2018-04-22T19:12:11.851Z,11.63
2018-04-22T19:14:40.255Z,13.77
2018-04-22T19:17:08.044Z,12.77
2018-04-22T19:19:35.693Z,12.90
2018-04-22T19:22:03.338Z,18.37
2018-04-22T19:24:31.086Z,14.60
2018-04-22T19:26:58.697Z,15.47
2018-04-22T19:29:26.364Z,11.53
2018-04-22T19:31:54.754Z,12.20
2018-04-22T19:34:23.190Z,14.00
2018-04-22T19:36:50.932Z,14.17
2018-04-22T19:39:18.588Z,14.50
2018-04-22T19:41:46.250Z,12.27
2018-04-22T19:44:14.028Z,17.83
2018-04-22T19:46:41.757Z,14.87
2018-04-22T19:49:09.429Z,12.73
2018-04-22T19:51:37.841Z,14.50
2018-04-22T19:54:05.548Z,14.20
2018-04-22T19:56:33.961Z,14.83
2018-04-22T19:59:01.585Z,12.37
2018-04-22T20:01:29.241Z,12.87
2018-04-22T20:03:56.926Z,13.80
2018-04-22T20:06:24.533Z,14.47
2018-04-22T20:08:52.245Z,12.93
2018-04-22T20:11:19.874Z,10.97
2018-04-22T20:13:48.304Z,11.30
2018-04-22T20:16:15.969Z,13.20
2018-04-22T20:18:43.624Z,13.73
2018-04-22T20:21:11.317Z,15.10
2018-04-22T20:23:39.013Z,12.40
2018-04-22T20:26:06.642Z,9.40
2018-04-22T20:28:34.296Z,13.47
2018-04-22T20:31:01.911Z,15.53
2018-04-22T20:33:30.307Z,11.23
2018-04-22T20:35:57.951Z,12.80
2018-04-22T20:38:25.623Z,11.13
2018-04-22T20:40:53.321Z,13.83
2018-04-22T20:43:21.026Z,13.20
2018-04-22T20:45:48.803Z,12.53
2018-04-22T20:48:16.521Z,13.27
2018-04-22T20:50:44.952Z,13.30
2018-04-22T20:53:14.482Z,10.10
2018-04-22T20:55:42.159Z,14.00
2018-04-22T20:58:09.871Z,11.23
2018-04-22T21:00:37.534Z,11.07
2018-04-22T21:03:05.150Z,11.57
2018-04-22T21:05:32.776Z,10.97
2018-04-22T21:08:00.355Z,13.27
2018-04-22T21:10:28.755Z,10.90
2018-04-22T21:12:56.404Z,13.63
2018-04-22T21:15:24.082Z,12.87
2018-04-22T21:17:53.242Z,10.63
2018-04-22T21:20:20.859Z,11.93
2018-04-22T21:22:48.532Z,12.83
2018-04-22T21:25:16.137Z,13.33
2018-04-22T21:27:44.511Z,10.53
2018-04-22T21:30:12.148Z,11.80
2018-04-22T21:32:39.787Z,11.23
2018-04-22T21:35:07.505Z,15.33
2018-04-22T21:37:35.903Z,11.03
2018-04-22T21:40:03.580Z,12.97
2018-04-22T21:42:31.269Z,13.50
2018-04-22T21:44:58.924Z,14.73
2018-04-22T21:47:27.394Z,13.33
2018-04-22T21:49:55.041Z,12.70
2018-04-22T21:52:22.680Z,11.90
2018-04-22T21:54:50.293Z,12.30
2018-04-22T21:57:18.715Z,9.57
2018-04-22T21:59:46.390Z,11.10
2018-04-22T22:02:14.052Z,10.77
2018-04-22T22:04:41.719Z,10.53
2018-04-22T22:07:09.339Z,8.73
2018-04-22T22:09:37.045Z,10.50
2018-04-22T22:12:04.677Z,10.60
2018-04-22T22:14:33.076Z,10.07
2018-04-22T22:17:00.766Z,10.93
2018-04-22T22:19:28.634Z,10.23
2018-04-22T22:21:56.268Z,7.50
2018-04-22T22:24:23.873Z,7.20
2018-04-22T22:26:51.513Z,8.27
2018-04-22T22:29:19.136Z,5.27
2018-04-22T22:31:46.758Z,4.97
2018-04-22T22:34:15.173Z,5.27
2018-04-22T22:36:42.836Z,4.20
2018-04-22T22:39:10.430Z,5.87
2018-04-22T22:41:38.162Z,3.83
2018-04-22T22:44:05.834Z,5.20
2018-04-22T22:46:33.528Z,4.60
2018-04-22T22:49:02.190Z,4.80
2018-04-22T22:51:29.812Z,7.37
2018-04-22T22:53:57.467Z,5.40
2018-04-22T22:56:25.846Z,6.30
2018-04-22T22:58:53.539Z,5.20
2018-04-22T23:01:21.199Z,4.33
2018-04-22T23:03:48.888Z,4.60
2018-04-22T23:06:17.344Z,5.40
2018-04-22T23:08:45.098Z,5.37
2018-04-22T23:11:12.769Z,4.80
2018-04-22T23:13:40.469Z,6.00
2018-04-22T23:16:08.110Z,5.57
2018-04-22T23:18:36.474Z,3.87
2018-04-22T23:21:04.096Z,4.40
2018-04-22T23:23:31.969Z,4.73
2018-04-22T23:25:59.619Z,4.97
2018-04-22T23:28:27.228Z,3.60
2018-04-22T23:30:55.662Z,4.77
2018-04-22T23:33:23.317Z,4.23
2018-04-22T23:35:50.918Z,6.30
2018-04-22T23:38:18.527Z,5.93
2018-04-22T23:40:46.229Z,4.90
2018-04-22T23:43:13.992Z,4.63
2018-04-22T23:45:41.632Z,4.70
2018-04-22T23:48:15.206Z,5.37
2018-04-22T23:50:42.878Z,6.33
2018-04-22T23:53:10.563Z,5.53
2018-04-22T23:55:38.205Z,6.23
2018-04-22T23:58:05.872Z,5.03
